SNR010 UWGG-UTDD
Flight info
| Callsign | SNR010 |
|---|---|
| Flight time | 3h 11m |
| Altitude | 37000 |
| Route | OKSUD2U OKSUD T778 MOF M161 ODIVA L162 UMZAN |
| Aircraft | B77W/H-SDE1E2E3FGHIJ2J3J4J5M1RWXY/LB1D1 |
Departure
| Time | 2026-04-22 07:44 |
|---|---|
| Airport | Nizhny Novgorod / Strigino International Airport (UWGG) |
Arrival
| Time | 2026-04-22 10:56 |
|---|---|
| Airport | Dushanbe International Airport (UTDD) |
| Time | Latitude | Longitude | Altitude | Speed | Heading |
|---|---|---|---|---|---|
| 2026-04-22 07:27 | 56.22803 | 43.79184 | 271 ft | 0 kts | 102° |
| 2026-04-22 07:38 | 56.22803 | 43.79186 | 271 ft | 1 kts | 101° |
| 2026-04-22 07:38 | 56.22813 | 43.79204 | 271 ft | 0 kts | 28° |
| 2026-04-22 07:39 | 56.22820 | 43.79204 | 272 ft | 3 kts | 2° |
| 2026-04-22 07:39 | 56.22865 | 43.79137 | 271 ft | 15 kts | 315° |
| 2026-04-22 07:39 | 56.22941 | 43.79046 | 271 ft | 11 kts | 354° |
| 2026-04-22 07:39 | 56.23004 | 43.79057 | 271 ft | 6 kts | 10° |
| 2026-04-22 07:40 | 56.23046 | 43.79071 | 271 ft | 6 kts | 10° |
| 2026-04-22 07:40 | 56.23088 | 43.79085 | 271 ft | 6 kts | 11° |
| 2026-04-22 07:40 | 56.23143 | 43.79104 | 271 ft | 10 kts | 11° |
| 2026-04-22 07:40 | 56.23222 | 43.79132 | 271 ft | 13 kts | 11° |
| 2026-04-22 07:41 | 56.23322 | 43.79169 | 271 ft | 15 kts | 12° |
| 2026-04-22 07:41 | 56.23425 | 43.79209 | 271 ft | 15 kts | 12° |
| 2026-04-22 07:41 | 56.23529 | 43.79237 | 271 ft | 15 kts | 4° |
| 2026-04-22 07:41 | 56.23634 | 43.79246 | 271 ft | 15 kts | 2° |
| 2026-04-22 07:42 | 56.23739 | 43.79255 | 271 ft | 15 kts | 2° |
| 2026-04-22 07:42 | 56.23844 | 43.79264 | 271 ft | 15 kts | 2° |
| 2026-04-22 07:42 | 56.23949 | 43.79272 | 271 ft | 15 kts | 2° |
| 2026-04-22 07:42 | 56.24051 | 43.79236 | 271 ft | 15 kts | 328° |
| 2026-04-22 07:43 | 56.24105 | 43.79121 | 271 ft | 7 kts | 302° |
| 2026-04-22 07:43 | 56.24119 | 43.79052 | 272 ft | 5 kts | 263° |
| 2026-04-22 07:43 | 56.24099 | 43.79005 | 273 ft | 5 kts | 212° |
| 2026-04-22 07:43 | 56.23998 | 43.78957 | 272 ft | 46 kts | 192° |
| 2026-04-22 07:44 | 56.23385 | 43.78732 | 271 ft | 132 kts | 191° |
| 2026-04-22 07:44 | 56.22272 | 43.78318 | 369 ft | 188 kts | 192° |
| 2026-04-22 07:44 | 56.20943 | 43.77823 | 1109 ft | 196 kts | 193° |
| 2026-04-22 07:44 | 56.19579 | 43.77341 | 2015 ft | 205 kts | 192° |
| 2026-04-22 07:45 | 56.18150 | 43.76913 | 2627 ft | 217 kts | 191° |
| 2026-04-22 07:45 | 56.16572 | 43.76364 | 2899 ft | 243 kts | 192° |
| 2026-04-22 07:45 | 56.14863 | 43.75748 | 3630 ft | 256 kts | 192° |
| 2026-04-22 07:45 | 56.13098 | 43.75106 | 4586 ft | 261 kts | 192° |
| 2026-04-22 07:46 | 56.11305 | 43.74447 | 5479 ft | 266 kts | 193° |
| 2026-04-22 07:46 | 56.09485 | 43.73775 | 6457 ft | 268 kts | 192° |
| 2026-04-22 07:46 | 56.07645 | 43.73326 | 7083 ft | 274 kts | 174° |
| 2026-04-22 07:46 | 56.05867 | 43.74520 | 7774 ft | 280 kts | 140° |
| 2026-04-22 07:47 | 56.04493 | 43.77004 | 8400 ft | 285 kts | 130° |
| 2026-04-22 07:47 | 56.03163 | 43.79684 | 9146 ft | 290 kts | 130° |
| 2026-04-22 07:47 | 56.01808 | 43.82386 | 9975 ft | 294 kts | 131° |
| 2026-04-22 07:47 | 56.00399 | 43.85149 | 10467 ft | 312 kts | 131° |
| 2026-04-22 07:48 | 55.98864 | 43.88129 | 10682 ft | 339 kts | 131° |
| 2026-04-22 07:48 | 55.97203 | 43.91330 | 10898 ft | 365 kts | 132° |
| 2026-04-22 07:48 | 55.95430 | 43.94690 | 11542 ft | 377 kts | 133° |
| 2026-04-22 07:48 | 55.93599 | 43.98102 | 12485 ft | 384 kts | 133° |
| 2026-04-22 07:49 | 55.91725 | 44.01551 | 13519 ft | 389 kts | 133° |
| 2026-04-22 07:49 | 55.89823 | 44.05025 | 14450 ft | 394 kts | 134° |
| 2026-04-22 07:49 | 55.87892 | 44.08538 | 15359 ft | 399 kts | 134° |
| 2026-04-22 07:49 | 55.85931 | 44.12081 | 16240 ft | 405 kts | 134° |
| 2026-04-22 07:50 | 55.83932 | 44.15678 | 17142 ft | 411 kts | 135° |
| 2026-04-22 07:50 | 55.81908 | 44.19310 | 18049 ft | 416 kts | 135° |
| 2026-04-22 07:50 | 55.79861 | 44.22979 | 18810 ft | 421 kts | 135° |
| 2026-04-22 07:50 | 55.77782 | 44.26702 | 19598 ft | 426 kts | 135° |
| 2026-04-22 07:51 | 55.75687 | 44.30451 | 20419 ft | 430 kts | 135° |
| 2026-04-22 07:51 | 55.73565 | 44.34243 | 21162 ft | 435 kts | 136° |
| 2026-04-22 07:51 | 55.71421 | 44.38069 | 21889 ft | 440 kts | 136° |
| 2026-04-22 07:51 | 55.69249 | 44.41934 | 22622 ft | 445 kts | 136° |
| 2026-04-22 07:52 | 55.67059 | 44.45825 | 23334 ft | 449 kts | 136° |
| 2026-04-22 07:52 | 55.64841 | 44.49763 | 23930 ft | 453 kts | 136° |
| 2026-04-22 07:52 | 55.62600 | 44.53734 | 24532 ft | 457 kts | 136° |
| 2026-04-22 07:52 | 55.60345 | 44.57724 | 25117 ft | 461 kts | 136° |
| 2026-04-22 07:53 | 55.58067 | 44.61746 | 25680 ft | 464 kts | 136° |
| 2026-04-22 07:53 | 55.55773 | 44.65791 | 26237 ft | 468 kts | 136° |
| 2026-04-22 07:53 | 55.53453 | 44.69873 | 26768 ft | 472 kts | 136° |
| 2026-04-22 07:53 | 55.51118 | 44.73973 | 27309 ft | 476 kts | 136° |
| 2026-04-22 07:54 | 55.48794 | 44.78047 | 27813 ft | 479 kts | 136° |
| 2026-04-22 07:54 | 55.46421 | 44.82200 | 28293 ft | 482 kts | 136° |
| 2026-04-22 07:54 | 55.44030 | 44.86376 | 28763 ft | 486 kts | 136° |
| 2026-04-22 07:54 | 55.41623 | 44.90575 | 29197 ft | 489 kts | 136° |
| 2026-04-22 07:55 | 55.39200 | 44.94794 | 29661 ft | 491 kts | 136° |
| 2026-04-22 07:55 | 55.36771 | 44.99015 | 30152 ft | 491 kts | 136° |
| 2026-04-22 07:55 | 55.34338 | 45.03234 | 30606 ft | 490 kts | 136° |
| 2026-04-22 07:55 | 55.31911 | 45.07436 | 31033 ft | 490 kts | 136° |
| 2026-04-22 07:56 | 55.29480 | 45.11637 | 31474 ft | 491 kts | 136° |
| 2026-04-22 07:56 | 55.27044 | 45.15839 | 31899 ft | 491 kts | 136° |
| 2026-04-22 07:56 | 55.24604 | 45.20040 | 32305 ft | 491 kts | 136° |
| 2026-04-22 07:56 | 55.22171 | 45.24222 | 32730 ft | 491 kts | 136° |
| 2026-04-22 07:57 | 55.19729 | 45.28410 | 33125 ft | 491 kts | 136° |
| 2026-04-22 07:57 | 55.17286 | 45.32594 | 33524 ft | 491 kts | 136° |
| 2026-04-22 07:57 | 55.14845 | 45.36767 | 33901 ft | 491 kts | 136° |
| 2026-04-22 07:57 | 55.12398 | 45.40941 | 34232 ft | 491 kts | 136° |
| 2026-04-22 07:58 | 55.09950 | 45.45110 | 34532 ft | 491 kts | 136° |
| 2026-04-22 07:58 | 55.07500 | 45.49275 | 34844 ft | 491 kts | 136° |
| 2026-04-22 07:58 | 55.05058 | 45.53419 | 35156 ft | 491 kts | 136° |
| 2026-04-22 07:58 | 55.02607 | 45.57571 | 35465 ft | 491 kts | 136° |
| 2026-04-22 07:59 | 55.00157 | 45.61714 | 35750 ft | 491 kts | 136° |
| 2026-04-22 07:59 | 54.97709 | 45.65846 | 36032 ft | 491 kts | 136° |
| 2026-04-22 07:59 | 54.95257 | 45.69977 | 36292 ft | 491 kts | 136° |
| 2026-04-22 07:59 | 54.92803 | 45.74104 | 36598 ft | 490 kts | 136° |
| 2026-04-22 08:00 | 54.90347 | 45.78227 | 36766 ft | 493 kts | 137° |
| 2026-04-22 08:00 | 54.87865 | 45.82386 | 36796 ft | 497 kts | 137° |
| 2026-04-22 08:00 | 54.82863 | 45.90745 | 36823 ft | 503 kts | 137° |
| 2026-04-22 08:01 | 54.77803 | 45.99171 | 36832 ft | 505 kts | 137° |
| 2026-04-22 08:01 | 54.72716 | 46.07611 | 36826 ft | 507 kts | 137° |
| 2026-04-22 08:02 | 54.67622 | 46.16032 | 36824 ft | 506 kts | 137° |
| 2026-04-22 08:02 | 54.62542 | 46.24401 | 36826 ft | 504 kts | 137° |
| 2026-04-22 08:03 | 54.57512 | 46.32656 | 36829 ft | 501 kts | 137° |
| 2026-04-22 08:03 | 54.52437 | 46.40954 | 36828 ft | 499 kts | 137° |
| 2026-04-22 08:04 | 54.47438 | 46.49099 | 36828 ft | 497 kts | 137° |
| 2026-04-22 08:04 | 54.42416 | 46.57254 | 36835 ft | 496 kts | 138° |
| 2026-04-22 08:05 | 54.37394 | 46.65379 | 36831 ft | 496 kts | 138° |
| 2026-04-22 08:05 | 54.32364 | 46.73491 | 36841 ft | 497 kts | 138° |
| 2026-04-22 08:06 | 54.27319 | 46.81601 | 36835 ft | 498 kts | 138° |
| 2026-04-22 08:06 | 54.23134 | 46.88354 | 36858 ft | 498 kts | 137° |
| 2026-04-22 08:07 | 54.18254 | 46.96804 | 36834 ft | 500 kts | 135° |
| 2026-04-22 08:07 | 54.13435 | 47.05351 | 36833 ft | 500 kts | 135° |
| 2026-04-22 08:08 | 54.08588 | 47.13851 | 36851 ft | 500 kts | 136° |
| 2026-04-22 08:08 | 54.03713 | 47.22297 | 36856 ft | 500 kts | 136° |
| 2026-04-22 08:09 | 53.98815 | 47.30727 | 36830 ft | 501 kts | 136° |
| 2026-04-22 08:09 | 53.93909 | 47.39142 | 36846 ft | 501 kts | 136° |
| 2026-04-22 08:10 | 53.89006 | 47.47529 | 36843 ft | 501 kts | 136° |
| 2026-04-22 08:10 | 53.84098 | 47.55895 | 36850 ft | 500 kts | 136° |
| 2026-04-22 08:11 | 53.79189 | 47.64232 | 36850 ft | 500 kts | 136° |
| 2026-04-22 08:11 | 53.74272 | 47.72555 | 36845 ft | 500 kts | 137° |
| 2026-04-22 08:12 | 53.69358 | 47.80844 | 36848 ft | 500 kts | 137° |
| 2026-04-22 08:12 | 53.64437 | 47.89116 | 36845 ft | 500 kts | 137° |
| 2026-04-22 08:13 | 53.59504 | 47.97378 | 36842 ft | 500 kts | 137° |
| 2026-04-22 08:13 | 53.54573 | 48.05608 | 36839 ft | 500 kts | 137° |
| 2026-04-22 08:14 | 53.49630 | 48.13830 | 36841 ft | 500 kts | 137° |
| 2026-04-22 08:14 | 53.44685 | 48.22026 | 36846 ft | 500 kts | 137° |
| 2026-04-22 08:15 | 53.39734 | 48.30205 | 36842 ft | 500 kts | 137° |
| 2026-04-22 08:15 | 53.34773 | 48.38371 | 36849 ft | 500 kts | 137° |
| 2026-04-22 08:16 | 53.29807 | 48.46518 | 36846 ft | 500 kts | 138° |
| 2026-04-22 08:16 | 53.24841 | 48.54637 | 36845 ft | 500 kts | 138° |
| 2026-04-22 08:17 | 53.19859 | 48.62753 | 36850 ft | 500 kts | 138° |
| 2026-04-22 08:17 | 53.14882 | 48.70833 | 36842 ft | 500 kts | 138° |
| 2026-04-22 08:18 | 53.09899 | 48.78897 | 36846 ft | 499 kts | 138° |
| 2026-04-22 08:18 | 53.04911 | 48.86941 | 36838 ft | 499 kts | 139° |
| 2026-04-22 08:19 | 52.99925 | 48.94954 | 36841 ft | 499 kts | 139° |
| 2026-04-22 08:19 | 52.94935 | 49.02947 | 36840 ft | 498 kts | 139° |
| 2026-04-22 08:20 | 52.89941 | 49.10920 | 36844 ft | 498 kts | 139° |
| 2026-04-22 08:20 | 52.84952 | 49.18857 | 36848 ft | 497 kts | 139° |
| 2026-04-22 08:21 | 52.79961 | 49.26770 | 36848 ft | 497 kts | 139° |
| 2026-04-22 08:21 | 52.74969 | 49.34659 | 36851 ft | 497 kts | 139° |
| 2026-04-22 08:22 | 52.70000 | 49.42485 | 36860 ft | 497 kts | 140° |
| 2026-04-22 08:22 | 52.64988 | 49.50353 | 36843 ft | 497 kts | 140° |
| 2026-04-22 08:23 | 52.59976 | 49.58194 | 36851 ft | 497 kts | 140° |
| 2026-04-22 08:23 | 52.54967 | 49.66007 | 36860 ft | 497 kts | 140° |
| 2026-04-22 08:24 | 52.49945 | 49.73812 | 36859 ft | 497 kts | 140° |
| 2026-04-22 08:24 | 52.44910 | 49.81612 | 36854 ft | 498 kts | 140° |
| 2026-04-22 08:25 | 52.39870 | 49.89393 | 36852 ft | 498 kts | 140° |
| 2026-04-22 08:25 | 52.34823 | 49.97162 | 36851 ft | 497 kts | 140° |
| 2026-04-22 08:26 | 52.29784 | 50.04891 | 36862 ft | 496 kts | 140° |
| 2026-04-22 08:26 | 52.24744 | 50.12597 | 36862 ft | 496 kts | 140° |
| 2026-04-22 08:27 | 52.19706 | 50.20274 | 36860 ft | 496 kts | 141° |
| 2026-04-22 08:27 | 52.14666 | 50.27930 | 36862 ft | 495 kts | 141° |
| 2026-04-22 08:28 | 52.09623 | 50.35566 | 36863 ft | 495 kts | 141° |
| 2026-04-22 08:28 | 52.04574 | 50.43185 | 36862 ft | 495 kts | 141° |
| 2026-04-22 08:29 | 51.99523 | 50.50783 | 36860 ft | 495 kts | 141° |
| 2026-04-22 08:29 | 51.94462 | 50.58372 | 36876 ft | 495 kts | 141° |
| 2026-04-22 08:30 | 51.89395 | 50.65946 | 36872 ft | 496 kts | 141° |
| 2026-04-22 08:30 | 51.84322 | 50.73506 | 36874 ft | 495 kts | 141° |
| 2026-04-22 08:31 | 51.79253 | 50.81036 | 36866 ft | 494 kts | 141° |
| 2026-04-22 08:32 | 51.71670 | 50.92258 | 36867 ft | 492 kts | 141° |
| 2026-04-22 08:32 | 51.66555 | 50.99519 | 36867 ft | 487 kts | 147° |
| 2026-04-22 08:33 | 51.60965 | 51.05575 | 36876 ft | 483 kts | 151° |
| 2026-04-22 08:33 | 51.55331 | 51.11448 | 36872 ft | 483 kts | 151° |
| 2026-04-22 08:34 | 51.49725 | 51.17377 | 36881 ft | 483 kts | 150° |
| 2026-04-22 08:34 | 51.44119 | 51.23313 | 36877 ft | 483 kts | 150° |
| 2026-04-22 08:35 | 51.38525 | 51.29282 | 36887 ft | 483 kts | 150° |
| 2026-04-22 08:35 | 51.32933 | 51.35265 | 36897 ft | 483 kts | 150° |
| 2026-04-22 08:36 | 51.27343 | 51.41220 | 36906 ft | 483 kts | 150° |
| 2026-04-22 08:36 | 51.21737 | 51.47169 | 36911 ft | 484 kts | 150° |
| 2026-04-22 08:37 | 51.16229 | 51.53360 | 36909 ft | 487 kts | 144° |
| 2026-04-22 08:37 | 51.11370 | 51.60960 | 36909 ft | 494 kts | 134° |
| 2026-04-22 08:38 | 51.07014 | 51.69423 | 36911 ft | 495 kts | 133° |
| 2026-04-22 08:38 | 51.02671 | 51.77896 | 36900 ft | 495 kts | 134° |
| 2026-04-22 08:39 | 50.98289 | 51.86329 | 36885 ft | 494 kts | 134° |
| 2026-04-22 08:39 | 50.93895 | 51.94711 | 36885 ft | 494 kts | 134° |
| 2026-04-22 08:40 | 50.89499 | 52.03066 | 36883 ft | 494 kts | 134° |
| 2026-04-22 08:40 | 50.85093 | 52.11418 | 36900 ft | 493 kts | 134° |
| 2026-04-22 08:41 | 50.80691 | 52.19738 | 36888 ft | 493 kts | 134° |
| 2026-04-22 08:41 | 50.76290 | 52.28031 | 36892 ft | 492 kts | 134° |
| 2026-04-22 08:42 | 50.71890 | 52.36297 | 36899 ft | 492 kts | 134° |
| 2026-04-22 08:42 | 50.67488 | 52.44546 | 36895 ft | 491 kts | 134° |
| 2026-04-22 08:43 | 50.63103 | 52.52802 | 36895 ft | 491 kts | 134° |
| 2026-04-22 08:43 | 50.58722 | 52.61050 | 36898 ft | 490 kts | 134° |
| 2026-04-22 08:44 | 50.54339 | 52.69271 | 36896 ft | 490 kts | 135° |
| 2026-04-22 08:44 | 50.49952 | 52.77469 | 36900 ft | 490 kts | 135° |
| 2026-04-22 08:45 | 50.45587 | 52.85596 | 36903 ft | 490 kts | 135° |
| 2026-04-22 08:45 | 50.41189 | 52.93759 | 36902 ft | 490 kts | 135° |
| 2026-04-22 08:46 | 50.36785 | 53.01909 | 36902 ft | 490 kts | 135° |
| 2026-04-22 08:46 | 50.32371 | 53.10051 | 36906 ft | 490 kts | 135° |
| 2026-04-22 08:47 | 50.27927 | 53.18223 | 36904 ft | 490 kts | 135° |
| 2026-04-22 08:47 | 50.23530 | 53.26284 | 36913 ft | 490 kts | 135° |
| 2026-04-22 08:48 | 50.19100 | 53.34379 | 36908 ft | 490 kts | 135° |
| 2026-04-22 08:48 | 50.14662 | 53.42464 | 36907 ft | 490 kts | 135° |
| 2026-04-22 08:49 | 50.10223 | 53.50527 | 36906 ft | 490 kts | 135° |
| 2026-04-22 08:49 | 50.05776 | 53.58577 | 36907 ft | 490 kts | 135° |
| 2026-04-22 08:50 | 50.02048 | 53.65307 | 36905 ft | 490 kts | 136° |
| 2026-04-22 08:50 | 49.97597 | 53.73321 | 36912 ft | 490 kts | 136° |
| 2026-04-22 08:51 | 49.93142 | 53.81320 | 36930 ft | 490 kts | 136° |
| 2026-04-22 08:51 | 49.88675 | 53.89315 | 36922 ft | 490 kts | 136° |
| 2026-04-22 08:52 | 49.84203 | 53.97280 | 36914 ft | 490 kts | 136° |
| 2026-04-22 08:52 | 49.79731 | 54.05223 | 36908 ft | 489 kts | 136° |
| 2026-04-22 08:53 | 49.75253 | 54.13155 | 36911 ft | 489 kts | 136° |
| 2026-04-22 08:53 | 49.70773 | 54.21069 | 36914 ft | 489 kts | 136° |
| 2026-04-22 08:54 | 49.66290 | 54.28965 | 36913 ft | 489 kts | 136° |
| 2026-04-22 08:54 | 49.61807 | 54.36836 | 36910 ft | 488 kts | 136° |
| 2026-04-22 08:55 | 49.57317 | 54.44696 | 36916 ft | 488 kts | 136° |
| 2026-04-22 08:55 | 49.52818 | 54.52547 | 36918 ft | 489 kts | 136° |
| 2026-04-22 08:56 | 49.48319 | 54.60376 | 36916 ft | 489 kts | 136° |
| 2026-04-22 08:56 | 49.43839 | 54.68148 | 36913 ft | 489 kts | 136° |
| 2026-04-22 08:57 | 49.39328 | 54.75951 | 36916 ft | 488 kts | 136° |
| 2026-04-22 08:57 | 49.34784 | 54.83786 | 36916 ft | 488 kts | 136° |
| 2026-04-22 08:58 | 49.30292 | 54.91509 | 36917 ft | 488 kts | 136° |
| 2026-04-22 08:58 | 49.25739 | 54.99315 | 36912 ft | 488 kts | 136° |
| 2026-04-22 08:59 | 49.21208 | 55.07062 | 36931 ft | 489 kts | 136° |
| 2026-04-22 08:59 | 49.16697 | 55.14753 | 36924 ft | 489 kts | 136° |
| 2026-04-22 09:00 | 49.12155 | 55.22462 | 36926 ft | 488 kts | 136° |
| 2026-04-22 09:00 | 49.07613 | 55.30145 | 36916 ft | 488 kts | 136° |
| 2026-04-22 09:01 | 49.03065 | 55.37820 | 36909 ft | 487 kts | 137° |
| 2026-04-22 09:01 | 48.98525 | 55.45461 | 36917 ft | 487 kts | 137° |
| 2026-04-22 09:02 | 48.93980 | 55.53089 | 36911 ft | 486 kts | 137° |
| 2026-04-22 09:02 | 48.89431 | 55.60702 | 36909 ft | 486 kts | 137° |
| 2026-04-22 09:03 | 48.84884 | 55.68290 | 36910 ft | 486 kts | 137° |
| 2026-04-22 09:03 | 48.80321 | 55.75849 | 36907 ft | 486 kts | 137° |
| 2026-04-22 09:04 | 48.75751 | 55.83386 | 36908 ft | 486 kts | 137° |
| 2026-04-22 09:04 | 48.71178 | 55.90918 | 36902 ft | 486 kts | 137° |
| 2026-04-22 09:05 | 48.66603 | 55.98437 | 36909 ft | 486 kts | 137° |
| 2026-04-22 09:05 | 48.62028 | 56.05960 | 36902 ft | 486 kts | 137° |
| 2026-04-22 09:06 | 48.57452 | 56.13470 | 36900 ft | 486 kts | 137° |
| 2026-04-22 09:06 | 48.52898 | 56.20917 | 36898 ft | 486 kts | 137° |
| 2026-04-22 09:07 | 48.48279 | 56.28446 | 36897 ft | 486 kts | 137° |
| 2026-04-22 09:07 | 48.43723 | 56.35858 | 36901 ft | 486 kts | 137° |
| 2026-04-22 09:08 | 48.39127 | 56.43318 | 36895 ft | 486 kts | 137° |
| 2026-04-22 09:08 | 48.34528 | 56.50760 | 36900 ft | 486 kts | 137° |
| 2026-04-22 09:09 | 48.29922 | 56.58182 | 36892 ft | 486 kts | 137° |
| 2026-04-22 09:09 | 48.25311 | 56.65593 | 36898 ft | 486 kts | 137° |
| 2026-04-22 09:10 | 48.20694 | 56.72998 | 36893 ft | 486 kts | 138° |
| 2026-04-22 09:10 | 48.16076 | 56.80383 | 36890 ft | 485 kts | 138° |
| 2026-04-22 09:11 | 48.11457 | 56.87751 | 36890 ft | 486 kts | 138° |
| 2026-04-22 09:11 | 48.06826 | 56.95116 | 36890 ft | 485 kts | 138° |
| 2026-04-22 09:12 | 48.02198 | 57.02455 | 36886 ft | 485 kts | 138° |
| 2026-04-22 09:12 | 47.97561 | 57.09787 | 36886 ft | 485 kts | 138° |
| 2026-04-22 09:13 | 47.92928 | 57.17094 | 36892 ft | 485 kts | 138° |
| 2026-04-22 09:13 | 47.88284 | 57.24398 | 36896 ft | 485 kts | 138° |
| 2026-04-22 09:14 | 47.83638 | 57.31685 | 36888 ft | 485 kts | 138° |
| 2026-04-22 09:14 | 47.78989 | 57.38957 | 36894 ft | 485 kts | 138° |
| 2026-04-22 09:15 | 47.74333 | 57.46219 | 36883 ft | 485 kts | 138° |
| 2026-04-22 09:15 | 47.69678 | 57.53461 | 36884 ft | 485 kts | 138° |
| 2026-04-22 09:16 | 47.65023 | 57.60686 | 36883 ft | 485 kts | 138° |
| 2026-04-22 09:16 | 47.60352 | 57.67900 | 36879 ft | 484 kts | 139° |
| 2026-04-22 09:17 | 47.55678 | 57.75084 | 36876 ft | 484 kts | 139° |
| 2026-04-22 09:17 | 47.51002 | 57.82253 | 36876 ft | 484 kts | 139° |
| 2026-04-22 09:18 | 47.46321 | 57.89417 | 36880 ft | 484 kts | 139° |
| 2026-04-22 09:18 | 47.41671 | 57.96513 | 36880 ft | 484 kts | 139° |
| 2026-04-22 09:19 | 47.36950 | 58.03701 | 36880 ft | 484 kts | 139° |
| 2026-04-22 09:19 | 47.32260 | 58.10823 | 36879 ft | 484 kts | 139° |
| 2026-04-22 09:20 | 47.27565 | 58.17930 | 36876 ft | 485 kts | 139° |
| 2026-04-22 09:20 | 47.22858 | 58.25041 | 36870 ft | 484 kts | 139° |
| 2026-04-22 09:21 | 47.18156 | 58.32130 | 36879 ft | 484 kts | 139° |
| 2026-04-22 09:21 | 47.13450 | 58.39208 | 36881 ft | 484 kts | 139° |
| 2026-04-22 09:22 | 47.08750 | 58.46259 | 36889 ft | 483 kts | 139° |
| 2026-04-22 09:22 | 47.04042 | 58.53300 | 36884 ft | 483 kts | 139° |
| 2026-04-22 09:23 | 46.99339 | 58.60316 | 36872 ft | 482 kts | 139° |
| 2026-04-22 09:23 | 46.94634 | 58.67317 | 36872 ft | 482 kts | 140° |
| 2026-04-22 09:24 | 46.89927 | 58.74302 | 36874 ft | 482 kts | 140° |
| 2026-04-22 09:24 | 46.85218 | 58.81271 | 36863 ft | 482 kts | 140° |
| 2026-04-22 09:25 | 46.80508 | 58.88223 | 36862 ft | 482 kts | 140° |
| 2026-04-22 09:25 | 46.75793 | 58.95165 | 36864 ft | 482 kts | 140° |
| 2026-04-22 09:26 | 46.71068 | 59.02102 | 36854 ft | 482 kts | 140° |
| 2026-04-22 09:26 | 46.66345 | 59.09019 | 36861 ft | 482 kts | 140° |
| 2026-04-22 09:27 | 46.61614 | 59.15930 | 36853 ft | 482 kts | 140° |
| 2026-04-22 09:27 | 46.56881 | 59.22825 | 36849 ft | 482 kts | 140° |
| 2026-04-22 09:28 | 46.52139 | 59.29715 | 36842 ft | 482 kts | 140° |
| 2026-04-22 09:28 | 46.47396 | 59.36589 | 36849 ft | 482 kts | 141° |
| 2026-04-22 09:29 | 46.42648 | 59.43450 | 36836 ft | 482 kts | 141° |
| 2026-04-22 09:29 | 46.37892 | 59.50309 | 36838 ft | 482 kts | 141° |
| 2026-04-22 09:30 | 46.33142 | 59.57141 | 36833 ft | 481 kts | 141° |
| 2026-04-22 09:30 | 46.28393 | 59.63953 | 36832 ft | 481 kts | 141° |
| 2026-04-22 09:31 | 46.23636 | 59.70762 | 36831 ft | 481 kts | 141° |
| 2026-04-22 09:31 | 46.18849 | 59.77372 | 36836 ft | 478 kts | 143° |
| 2026-04-22 09:32 | 46.13924 | 59.83817 | 36836 ft | 478 kts | 144° |
| 2026-04-22 09:32 | 46.08994 | 59.90252 | 36836 ft | 478 kts | 143° |
| 2026-04-22 09:33 | 46.04077 | 59.96708 | 36833 ft | 478 kts | 143° |
| 2026-04-22 09:33 | 45.99172 | 60.03157 | 36837 ft | 478 kts | 143° |
| 2026-04-22 09:34 | 45.94257 | 60.09607 | 36836 ft | 478 kts | 144° |
| 2026-04-22 09:34 | 45.90141 | 60.14993 | 36831 ft | 478 kts | 144° |
| 2026-04-22 09:35 | 45.82762 | 60.24617 | 36829 ft | 478 kts | 144° |
| 2026-04-22 09:35 | 45.77869 | 60.30980 | 36815 ft | 478 kts | 144° |
| 2026-04-22 09:36 | 45.72945 | 60.37367 | 36826 ft | 477 kts | 144° |
| 2026-04-22 09:36 | 45.67986 | 60.43784 | 36818 ft | 477 kts | 144° |
| 2026-04-22 09:37 | 45.63093 | 60.50099 | 36822 ft | 477 kts | 144° |
| 2026-04-22 09:37 | 45.58165 | 60.56445 | 36820 ft | 477 kts | 144° |
| 2026-04-22 09:38 | 45.53230 | 60.62783 | 36813 ft | 477 kts | 145° |
| 2026-04-22 09:38 | 45.48299 | 60.69103 | 36816 ft | 477 kts | 145° |
| 2026-04-22 09:39 | 45.43358 | 60.75421 | 36814 ft | 477 kts | 145° |
| 2026-04-22 09:39 | 45.38411 | 60.81722 | 36811 ft | 477 kts | 145° |
| 2026-04-22 09:40 | 45.33459 | 60.88010 | 36809 ft | 477 kts | 145° |
| 2026-04-22 09:40 | 45.28507 | 60.94286 | 36811 ft | 477 kts | 145° |
| 2026-04-22 09:41 | 45.23544 | 61.00563 | 36822 ft | 478 kts | 145° |
| 2026-04-22 09:41 | 45.18583 | 61.06823 | 36812 ft | 478 kts | 145° |
| 2026-04-22 09:42 | 45.13614 | 61.13079 | 36804 ft | 478 kts | 146° |
| 2026-04-22 09:42 | 45.08643 | 61.19321 | 36808 ft | 477 kts | 146° |
| 2026-04-22 09:43 | 45.03675 | 61.25544 | 36804 ft | 477 kts | 146° |
| 2026-04-22 09:43 | 44.98704 | 61.31756 | 36803 ft | 477 kts | 146° |
| 2026-04-22 09:44 | 44.93733 | 61.37956 | 36801 ft | 477 kts | 146° |
| 2026-04-22 09:44 | 44.88765 | 61.44136 | 36804 ft | 476 kts | 146° |
| 2026-04-22 09:45 | 44.83789 | 61.50314 | 36803 ft | 476 kts | 146° |
| 2026-04-22 09:45 | 44.78815 | 61.56481 | 36803 ft | 476 kts | 146° |
| 2026-04-22 09:46 | 44.73838 | 61.62639 | 36794 ft | 476 kts | 146° |
| 2026-04-22 09:46 | 44.68894 | 61.68741 | 36796 ft | 476 kts | 146° |
| 2026-04-22 09:47 | 44.63884 | 61.74910 | 36799 ft | 476 kts | 146° |
| 2026-04-22 09:47 | 44.58909 | 61.81022 | 36800 ft | 475 kts | 147° |
| 2026-04-22 09:48 | 44.53936 | 61.87117 | 36791 ft | 475 kts | 147° |
| 2026-04-22 09:48 | 44.48993 | 61.93159 | 36796 ft | 474 kts | 147° |
| 2026-04-22 09:49 | 44.44025 | 61.99220 | 36788 ft | 473 kts | 147° |
| 2026-04-22 09:49 | 44.39063 | 62.05259 | 36786 ft | 473 kts | 147° |
| 2026-04-22 09:50 | 44.34100 | 62.11283 | 36787 ft | 472 kts | 147° |
| 2026-04-22 09:50 | 44.29142 | 62.17290 | 36805 ft | 471 kts | 147° |
| 2026-04-22 09:51 | 44.24188 | 62.23278 | 36800 ft | 471 kts | 147° |
| 2026-04-22 09:51 | 44.19242 | 62.29243 | 36788 ft | 470 kts | 147° |
| 2026-04-22 09:52 | 44.14285 | 62.35192 | 36789 ft | 470 kts | 148° |
| 2026-04-22 09:52 | 44.09330 | 62.41109 | 36787 ft | 469 kts | 148° |
| 2026-04-22 09:53 | 44.04376 | 62.47014 | 36786 ft | 469 kts | 148° |
| 2026-04-22 09:53 | 43.99421 | 62.52911 | 36787 ft | 469 kts | 148° |
| 2026-04-22 09:54 | 43.94464 | 62.58797 | 36785 ft | 469 kts | 148° |
| 2026-04-22 09:54 | 43.89501 | 62.64678 | 36787 ft | 469 kts | 148° |
| 2026-04-22 09:55 | 43.84538 | 62.70545 | 36788 ft | 469 kts | 148° |
| 2026-04-22 09:55 | 43.79566 | 62.76411 | 36787 ft | 470 kts | 148° |
| 2026-04-22 09:56 | 43.74591 | 62.82268 | 36791 ft | 470 kts | 148° |
| 2026-04-22 09:56 | 43.69601 | 62.88117 | 36792 ft | 470 kts | 148° |
| 2026-04-22 09:57 | 43.64606 | 62.93955 | 36791 ft | 470 kts | 148° |
| 2026-04-22 09:57 | 43.59614 | 62.99783 | 36809 ft | 470 kts | 148° |
| 2026-04-22 09:58 | 43.54620 | 63.05622 | 36794 ft | 470 kts | 148° |
| 2026-04-22 09:58 | 43.49629 | 63.11449 | 36795 ft | 471 kts | 148° |
| 2026-04-22 09:59 | 43.44632 | 63.17269 | 36787 ft | 470 kts | 148° |
| 2026-04-22 09:59 | 43.39640 | 63.23070 | 36795 ft | 470 kts | 148° |
| 2026-04-22 10:00 | 43.34621 | 63.28887 | 36801 ft | 475 kts | 148° |
| 2026-04-22 10:00 | 43.29525 | 63.34773 | 36803 ft | 482 kts | 148° |
| 2026-04-22 10:01 | 43.24366 | 63.40713 | 36801 ft | 486 kts | 148° |
| 2026-04-22 10:01 | 43.19177 | 63.46685 | 36802 ft | 488 kts | 148° |
| 2026-04-22 10:02 | 43.13971 | 63.52663 | 36798 ft | 489 kts | 148° |
| 2026-04-22 10:02 | 43.08761 | 63.58632 | 36801 ft | 488 kts | 148° |
| 2026-04-22 10:03 | 43.03557 | 63.64579 | 36793 ft | 487 kts | 148° |
| 2026-04-22 10:03 | 42.98363 | 63.70502 | 36797 ft | 485 kts | 148° |
| 2026-04-22 10:04 | 42.93182 | 63.76391 | 36801 ft | 484 kts | 148° |
| 2026-04-22 10:04 | 42.88009 | 63.82254 | 36804 ft | 483 kts | 148° |
| 2026-04-22 10:05 | 42.82831 | 63.88111 | 36799 ft | 484 kts | 148° |
| 2026-04-22 10:05 | 42.77651 | 63.93961 | 36800 ft | 484 kts | 148° |
| 2026-04-22 10:06 | 42.72463 | 63.99809 | 36805 ft | 484 kts | 148° |
| 2026-04-22 10:06 | 42.67268 | 64.05651 | 36806 ft | 485 kts | 148° |
| 2026-04-22 10:07 | 42.62066 | 64.11488 | 36818 ft | 485 kts | 148° |
| 2026-04-22 10:07 | 42.56798 | 64.17171 | 36819 ft | 481 kts | 151° |
| 2026-04-22 10:08 | 42.51390 | 64.22525 | 36804 ft | 481 kts | 152° |
| 2026-04-22 10:08 | 42.46003 | 64.27800 | 36808 ft | 481 kts | 152° |
| 2026-04-22 10:09 | 42.40586 | 64.33125 | 36807 ft | 481 kts | 152° |
| 2026-04-22 10:09 | 42.35177 | 64.38454 | 36808 ft | 481 kts | 152° |
| 2026-04-22 10:10 | 42.29765 | 64.43781 | 36806 ft | 481 kts | 152° |
| 2026-04-22 10:10 | 42.24352 | 64.49095 | 36808 ft | 481 kts | 152° |
| 2026-04-22 10:11 | 42.18946 | 64.54391 | 36804 ft | 481 kts | 152° |
| 2026-04-22 10:11 | 42.13526 | 64.59687 | 36810 ft | 481 kts | 152° |
| 2026-04-22 10:12 | 42.08098 | 64.64981 | 36820 ft | 482 kts | 152° |
| 2026-04-22 10:12 | 42.02662 | 64.70270 | 36813 ft | 482 kts | 152° |
| 2026-04-22 10:13 | 41.97228 | 64.75547 | 36803 ft | 482 kts | 152° |
| 2026-04-22 10:13 | 41.91778 | 64.80827 | 36806 ft | 483 kts | 152° |
| 2026-04-22 10:14 | 41.86331 | 64.86094 | 36805 ft | 483 kts | 152° |
| 2026-04-22 10:14 | 41.80883 | 64.91350 | 36808 ft | 483 kts | 152° |
| 2026-04-22 10:15 | 41.75426 | 64.96603 | 36808 ft | 483 kts | 152° |
| 2026-04-22 10:15 | 41.69971 | 65.01843 | 36814 ft | 483 kts | 152° |
| 2026-04-22 10:16 | 41.64504 | 65.07084 | 36811 ft | 484 kts | 152° |
| 2026-04-22 10:16 | 41.59025 | 65.12324 | 36819 ft | 484 kts | 152° |
| 2026-04-22 10:17 | 41.54473 | 65.16670 | 36814 ft | 485 kts | 152° |
| 2026-04-22 10:17 | 41.48983 | 65.21901 | 36818 ft | 485 kts | 152° |
| 2026-04-22 10:18 | 41.43489 | 65.27125 | 36826 ft | 485 kts | 152° |
| 2026-04-22 10:18 | 41.37989 | 65.32344 | 36822 ft | 486 kts | 152° |
| 2026-04-22 10:19 | 41.32479 | 65.37561 | 36833 ft | 486 kts | 152° |
| 2026-04-22 10:19 | 41.26958 | 65.42778 | 36824 ft | 487 kts | 152° |
| 2026-04-22 10:20 | 41.21438 | 65.47983 | 36817 ft | 487 kts | 152° |
| 2026-04-22 10:20 | 41.15909 | 65.53186 | 36830 ft | 487 kts | 152° |
| 2026-04-22 10:21 | 41.10379 | 65.58380 | 36830 ft | 487 kts | 152° |
| 2026-04-22 10:21 | 41.04845 | 65.63552 | 36838 ft | 487 kts | 153° |
| 2026-04-22 10:22 | 40.99285 | 65.68696 | 36841 ft | 487 kts | 153° |
| 2026-04-22 10:22 | 40.93719 | 65.73834 | 36833 ft | 488 kts | 153° |
| 2026-04-22 10:23 | 40.88157 | 65.78964 | 36840 ft | 488 kts | 153° |
| 2026-04-22 10:23 | 40.82590 | 65.84090 | 36841 ft | 488 kts | 153° |
| 2026-04-22 10:24 | 40.77020 | 65.89210 | 36839 ft | 488 kts | 153° |
| 2026-04-22 10:24 | 40.71450 | 65.94318 | 36850 ft | 488 kts | 153° |
| 2026-04-22 10:25 | 40.65876 | 65.99420 | 36849 ft | 488 kts | 153° |
| 2026-04-22 10:25 | 40.60305 | 66.04507 | 36853 ft | 488 kts | 153° |
| 2026-04-22 10:26 | 40.54721 | 66.09598 | 36851 ft | 488 kts | 153° |
| 2026-04-22 10:26 | 40.49133 | 66.14683 | 36855 ft | 488 kts | 153° |
| 2026-04-22 10:27 | 40.43727 | 66.20151 | 36858 ft | 496 kts | 145° |
| 2026-04-22 10:27 | 40.38930 | 66.26785 | 36876 ft | 503 kts | 139° |
| 2026-04-22 10:28 | 40.34255 | 66.33638 | 36873 ft | 504 kts | 139° |
| 2026-04-22 10:28 | 40.29562 | 66.40460 | 36879 ft | 505 kts | 140° |
| 2026-04-22 10:29 | 40.24822 | 66.47276 | 36867 ft | 507 kts | 140° |
| 2026-04-22 10:29 | 40.20065 | 66.54081 | 36869 ft | 506 kts | 140° |
| 2026-04-22 10:30 | 40.15310 | 66.60872 | 36867 ft | 506 kts | 140° |
| 2026-04-22 10:30 | 40.10554 | 66.67652 | 36869 ft | 506 kts | 140° |
| 2026-04-22 10:31 | 40.05820 | 66.74386 | 36874 ft | 506 kts | 140° |
| 2026-04-22 10:31 | 40.01005 | 66.81217 | 36500 ft | 510 kts | 140° |
| 2026-04-22 10:32 | 39.98645 | 66.84561 | 36139 ft | 506 kts | 140° |
| 2026-04-22 10:32 | 39.96278 | 66.87919 | 35788 ft | 499 kts | 140° |
| 2026-04-22 10:32 | 39.93941 | 66.91231 | 35425 ft | 495 kts | 140° |
| 2026-04-22 10:32 | 39.91609 | 66.94525 | 35086 ft | 495 kts | 140° |
| 2026-04-22 10:33 | 39.89277 | 66.97811 | 34768 ft | 496 kts | 140° |
| 2026-04-22 10:33 | 39.86933 | 67.01108 | 34420 ft | 496 kts | 140° |
| 2026-04-22 10:33 | 39.84580 | 67.04414 | 34117 ft | 500 kts | 140° |
| 2026-04-22 10:33 | 39.82212 | 67.07739 | 33709 ft | 501 kts | 140° |
| 2026-04-22 10:34 | 39.79847 | 67.11059 | 33289 ft | 499 kts | 140° |
| 2026-04-22 10:34 | 39.77490 | 67.14371 | 32860 ft | 497 kts | 140° |
| 2026-04-22 10:34 | 39.75154 | 67.17650 | 32455 ft | 494 kts | 140° |
| 2026-04-22 10:34 | 39.72820 | 67.20921 | 32045 ft | 492 kts | 139° |
| 2026-04-22 10:35 | 39.70495 | 67.24172 | 31656 ft | 495 kts | 139° |
| 2026-04-22 10:35 | 39.68119 | 67.27482 | 31180 ft | 503 kts | 139° |
| 2026-04-22 10:35 | 39.65735 | 67.30802 | 30672 ft | 503 kts | 139° |
| 2026-04-22 10:35 | 39.63356 | 67.34121 | 30165 ft | 501 kts | 139° |
| 2026-04-22 10:36 | 39.60979 | 67.37434 | 29728 ft | 500 kts | 138° |
| 2026-04-22 10:36 | 39.58607 | 67.40737 | 29326 ft | 500 kts | 138° |
| 2026-04-22 10:36 | 39.56242 | 67.44026 | 29046 ft | 499 kts | 138° |
| 2026-04-22 10:36 | 39.53883 | 67.47302 | 28792 ft | 498 kts | 138° |
| 2026-04-22 10:37 | 39.51522 | 67.50576 | 28519 ft | 497 kts | 138° |
| 2026-04-22 10:37 | 39.46808 | 67.57101 | 27997 ft | 495 kts | 138° |
| 2026-04-22 10:37 | 39.44454 | 67.60354 | 27747 ft | 494 kts | 138° |
| 2026-04-22 10:38 | 39.42101 | 67.63603 | 27489 ft | 494 kts | 138° |
| 2026-04-22 10:38 | 39.39754 | 67.66839 | 27233 ft | 493 kts | 138° |
| 2026-04-22 10:38 | 39.37411 | 67.70070 | 27000 ft | 492 kts | 138° |
| 2026-04-22 10:38 | 39.35070 | 67.73290 | 26761 ft | 491 kts | 138° |
| 2026-04-22 10:39 | 39.32735 | 67.76498 | 26530 ft | 490 kts | 138° |
| 2026-04-22 10:39 | 39.30402 | 67.79704 | 26297 ft | 489 kts | 138° |
| 2026-04-22 10:39 | 39.28078 | 67.82895 | 26060 ft | 488 kts | 138° |
| 2026-04-22 10:39 | 39.25756 | 67.86084 | 25802 ft | 487 kts | 138° |
| 2026-04-22 10:40 | 39.23431 | 67.89262 | 25585 ft | 485 kts | 138° |
| 2026-04-22 10:40 | 39.21119 | 67.92420 | 25381 ft | 484 kts | 138° |
| 2026-04-22 10:40 | 39.18808 | 67.95579 | 25126 ft | 483 kts | 138° |
| 2026-04-22 10:40 | 39.16505 | 67.98721 | 24887 ft | 481 kts | 138° |
| 2026-04-22 10:41 | 39.14216 | 68.01844 | 24643 ft | 478 kts | 138° |
| 2026-04-22 10:41 | 39.11942 | 68.04952 | 24393 ft | 476 kts | 138° |
| 2026-04-22 10:41 | 39.09674 | 68.08062 | 23981 ft | 476 kts | 138° |
| 2026-04-22 10:41 | 39.07475 | 68.11093 | 23501 ft | 449 kts | 138° |
| 2026-04-22 10:42 | 39.05378 | 68.13997 | 23117 ft | 442 kts | 138° |
| 2026-04-22 10:42 | 39.03282 | 68.16898 | 22630 ft | 441 kts | 138° |
| 2026-04-22 10:42 | 39.01206 | 68.19767 | 22177 ft | 436 kts | 138° |
| 2026-04-22 10:42 | 38.99155 | 68.22593 | 21736 ft | 428 kts | 137° |
| 2026-04-22 10:43 | 38.97146 | 68.25358 | 21381 ft | 419 kts | 138° |
| 2026-04-22 10:43 | 38.95171 | 68.28070 | 21069 ft | 411 kts | 137° |
| 2026-04-22 10:43 | 38.93227 | 68.30739 | 20713 ft | 408 kts | 137° |
| 2026-04-22 10:43 | 38.91290 | 68.33385 | 20331 ft | 407 kts | 138° |
| 2026-04-22 10:44 | 38.89347 | 68.36033 | 20117 ft | 406 kts | 138° |
| 2026-04-22 10:44 | 38.87406 | 68.38675 | 19883 ft | 407 kts | 137° |
| 2026-04-22 10:44 | 38.85459 | 68.41319 | 19632 ft | 408 kts | 137° |
| 2026-04-22 10:44 | 38.83519 | 68.43952 | 19395 ft | 404 kts | 137° |
| 2026-04-22 10:45 | 38.81607 | 68.46548 | 19164 ft | 396 kts | 137° |
| 2026-04-22 10:45 | 38.79740 | 68.49100 | 18913 ft | 387 kts | 136° |
| 2026-04-22 10:45 | 38.78141 | 68.51863 | 18659 ft | 387 kts | 125° |
| 2026-04-22 10:45 | 38.77002 | 68.54989 | 18421 ft | 389 kts | 112° |
| 2026-04-22 10:46 | 38.76382 | 68.58369 | 18173 ft | 392 kts | 101° |
| 2026-04-22 10:46 | 38.76157 | 68.61795 | 17915 ft | 390 kts | 96° |
| 2026-04-22 10:46 | 38.76047 | 68.65299 | 17650 ft | 387 kts | 95° |
| 2026-04-22 10:46 | 38.75971 | 68.68729 | 17281 ft | 385 kts | 95° |
| 2026-04-22 10:47 | 38.75900 | 68.72124 | 16788 ft | 373 kts | 95° |
| 2026-04-22 10:47 | 38.75837 | 68.75359 | 16304 ft | 355 kts | 95° |
| 2026-04-22 10:47 | 38.75777 | 68.78495 | 15883 ft | 352 kts | 95° |
| 2026-04-22 10:47 | 38.75689 | 68.81631 | 15427 ft | 352 kts | 97° |
| 2026-04-22 10:48 | 38.75469 | 68.84752 | 15035 ft | 352 kts | 99° |
| 2026-04-22 10:48 | 38.75206 | 68.87872 | 14563 ft | 354 kts | 99° |
| 2026-04-22 10:48 | 38.74926 | 68.90989 | 13995 ft | 346 kts | 99° |
| 2026-04-22 10:48 | 38.74655 | 68.93966 | 13292 ft | 336 kts | 98° |
| 2026-04-22 10:49 | 38.74489 | 68.96949 | 12562 ft | 327 kts | 95° |
| 2026-04-22 10:49 | 38.74382 | 68.99818 | 11846 ft | 319 kts | 95° |
| 2026-04-22 10:49 | 38.74154 | 69.02569 | 11196 ft | 309 kts | 103° |
| 2026-04-22 10:49 | 38.73402 | 69.05049 | 10435 ft | 298 kts | 128° |
| 2026-04-22 10:50 | 38.71973 | 69.06839 | 9920 ft | 282 kts | 153° |
| 2026-04-22 10:50 | 38.70127 | 69.07437 | 9007 ft | 275 kts | 182° |
| 2026-04-22 10:50 | 38.68224 | 69.07127 | 8011 ft | 276 kts | 191° |
| 2026-04-22 10:50 | 38.66361 | 69.06640 | 7251 ft | 274 kts | 192° |
| 2026-04-22 10:51 | 38.64542 | 69.06080 | 6680 ft | 264 kts | 193° |
| 2026-04-22 10:51 | 38.62754 | 69.05466 | 5905 ft | 264 kts | 197° |
| 2026-04-22 10:51 | 38.61163 | 69.04608 | 5610 ft | 237 kts | 208° |
| 2026-04-22 10:51 | 38.59894 | 69.03418 | 5201 ft | 213 kts | 223° |
| 2026-04-22 10:52 | 38.58952 | 69.02065 | 4838 ft | 197 kts | 233° |
| 2026-04-22 10:52 | 38.58260 | 69.00594 | 4345 ft | 186 kts | 245° |
| 2026-04-22 10:52 | 38.57740 | 68.99137 | 4046 ft | 168 kts | 246° |
| 2026-04-22 10:52 | 38.57304 | 68.97841 | 4201 ft | 161 kts | 249° |
| 2026-04-22 10:53 | 38.56888 | 68.96472 | 4191 ft | 166 kts | 250° |
| 2026-04-22 10:53 | 38.56497 | 68.95108 | 4258 ft | 163 kts | 250° |
| 2026-04-22 10:53 | 38.56056 | 68.93748 | 4152 ft | 169 kts | 246° |
| 2026-04-22 10:53 | 38.55544 | 68.92391 | 3885 ft | 169 kts | 245° |
| 2026-04-22 10:54 | 38.55070 | 68.91067 | 3660 ft | 158 kts | 249° |
| 2026-04-22 10:54 | 38.54720 | 68.89742 | 3469 ft | 158 kts | 255° |
| 2026-04-22 10:54 | 38.54479 | 68.88378 | 3281 ft | 159 kts | 261° |
| 2026-04-22 10:54 | 38.54360 | 68.86980 | 3067 ft | 157 kts | 268° |
| 2026-04-22 10:55 | 38.54352 | 68.85582 | 2851 ft | 158 kts | 271° |
| 2026-04-22 10:55 | 38.54365 | 68.84172 | 2642 ft | 159 kts | 270° |
| 2026-04-22 10:55 | 38.54363 | 68.82777 | 2572 ft | 150 kts | 271° |
| 2026-04-22 10:55 | 38.54368 | 68.81635 | 2573 ft | 94 kts | 270° |
| 2026-04-22 10:56 | 38.54369 | 68.81070 | 2578 ft | 28 kts | 270° |
| 2026-04-22 10:56 | 38.54370 | 68.80918 | 2580 ft | 8 kts | 270° |
| 2026-04-22 10:56 | 38.54370 | 68.80864 | 2580 ft | 2 kts | 270° |
| 2026-04-22 10:56 | 38.54370 | 68.80827 | 2581 ft | 8 kts | 270° |
| 2026-04-22 10:57 | 38.54369 | 68.80707 | 2581 ft | 16 kts | 270° |
| 2026-04-22 10:57 | 38.54369 | 68.80562 | 2582 ft | 16 kts | 270° |
| 2026-04-22 10:57 | 38.54392 | 68.80427 | 2579 ft | 16 kts | 323° |
| 2026-04-22 10:57 | 38.54492 | 68.80399 | 2584 ft | 11 kts | 355° |
| 2026-04-22 10:58 | 38.54565 | 68.80392 | 2582 ft | 11 kts | 355° |
| 2026-04-22 10:58 | 38.54633 | 68.80385 | 2579 ft | 11 kts | 355° |
| 2026-04-22 10:58 | 38.54682 | 68.80439 | 2582 ft | 11 kts | 83° |
| 2026-04-22 10:58 | 38.54685 | 68.80535 | 2582 ft | 11 kts | 89° |
| 2026-04-22 10:59 | 38.54685 | 68.80630 | 2582 ft | 11 kts | 90° |
| 2026-04-22 10:59 | 38.54685 | 68.80728 | 2581 ft | 11 kts | 90° |
| 2026-04-22 10:59 | 38.54684 | 68.80830 | 2581 ft | 12 kts | 90° |
| 2026-04-22 10:59 | 38.54706 | 68.80910 | 2579 ft | 10 kts | 35° |
| 2026-04-22 11:00 | 38.54778 | 68.80924 | 2577 ft | 0 kts | 1° |